TimeMDT,TemperatureF,Dew PointF,Humidity,Sea Level PressureIn,VisibilityMPH,Wind Direction,Wind SpeedMPH,Gust SpeedMPH,PrecipitationIn,Events,Conditions,WindDirDegrees,DateUTC
12:00 AM,50.0,46.4,87,30.51,10.0,Calm,Calm,-,N/A,,Scattered Clouds,0,2013-08-02 06:00:00
12:19 AM,50.0,46.4,87,30.51,10.0,Calm,Calm,-,N/A,,Mostly Cloudy,0,2013-08-02 06:19:00
12:40 AM,50.0,46.4,87,30.51,10.0,Calm,Calm,-,N/A,,Mostly Cloudy,0,2013-08-02 06:40:00
1:00 AM,50.0,46.4,87,30.51,10.0,Calm,Calm,-,N/A,Thunderstorm,Mostly Cloudy,0,2013-08-02 07:00:00
1:20 AM,50.0,46.4,87,30.50,10.0,Calm,Calm,-,N/A,,Clear,0,2013-08-02 07:20:00
1:40 AM,50.0,46.4,87,30.49,10.0,SSW,3.5,-,N/A,,Clear,210,2013-08-02 07:40:00
2:00 AM,50.0,44.6,82,30.49,10.0,Calm,Calm,-,N/A,,Clear,0,2013-08-02 08:00:00
2:20 AM,50.0,44.6,82,30.49,10.0,Calm,Calm,-,N/A,,Clear,0,2013-08-02 08:20:00
2:40 AM,48.2,44.6,87,30.49,10.0,Calm,Calm,-,N/A,,Clear,0,2013-08-02 08:40:00
3:00 AM,46.4,42.8,87,30.49,10.0,Calm,Calm,-,N/A,,Clear,0,2013-08-02 09:00:00
3:20 AM,46.4,42.8,87,30.49,10.0,Calm,Calm,-,N/A,,Clear,0,2013-08-02 09:20:00
3:40 AM,46.4,42.8,87,30.49,10.0,Calm,Calm,-,N/A,,Clear,0,2013-08-02 09:40:00
4:00 AM,46.4,42.8,87,30.50,10.0,Calm,Calm,-,N/A,,Clear,0,2013-08-02 10:00:00
4:19 AM,48.2,44.6,87,30.49,10.0,SSW,4.6,-,N/A,,Clear,210,2013-08-02 10:19:00
4:40 AM,48.2,44.6,87,30.49,10.0,SSW,3.5,-,N/A,,Clear,210,2013-08-02 10:40:00
5:00 AM,48.2,44.6,87,30.49,10.0,SSW,3.5,-,N/A,,Scattered Clouds,210,2013-08-02 11:00:00
5:20 AM,46.4,44.6,93,30.49,10.0,Calm,Calm,-,N/A,,Scattered Clouds,0,2013-08-02 11:20:00
5:40 AM,48.2,44.6,87,30.50,10.0,Calm,Calm,-,N/A,,Scattered Clouds,0,2013-08-02 11:40:00
6:00 AM,50.0,44.6,82,30.50,10.0,SW,3.5,-,N/A,,Mostly Cloudy,220,2013-08-02 12:00:00
6:20 AM,50.0,44.6,82,30.51,10.0,Calm,Calm,-,N/A,,Mostly Cloudy,0,2013-08-02 12:20:00
6:41 AM,48.2,44.6,87,30.50,10.0,Calm,Calm,-,N/A,,Scattered Clouds,0,2013-08-02 12:41:00
7:01 AM,48.2,44.6,87,30.51,10.0,Calm,Calm,-,N/A,,Mostly Cloudy,0,2013-08-02 13:01:00
7:20 AM,50.0,44.6,82,30.52,10.0,Calm,Calm,-,N/A,,Scattered Clouds,0,2013-08-02 13:20:00
7:40 AM,50.0,46.4,87,30.53,10.0,Calm,Calm,-,N/A,,Mostly Cloudy,0,2013-08-02 13:40:00
8:00 AM,51.8,46.4,82,30.53,10.0,Calm,Calm,-,N/A,,Mostly Cloudy,0,2013-08-02 14:00:00
8:21 AM,51.8,46.4,82,30.54,10.0,Calm,Calm,-,N/A,,Mostly Cloudy,0,2013-08-02 14:21:00
8:40 AM,53.6,46.4,77,30.54,10.0,Calm,Calm,-,N/A,,Scattered Clouds,0,2013-08-02 14:40:00
9:01 AM,53.6,50.0,88,30.55,10.0,Calm,Calm,-,N/A,,Mostly Cloudy,0,2013-08-02 15:01:00
9:20 AM,53.6,50.0,88,30.56,10.0,Calm,Calm,-,N/A,,Overcast,0,2013-08-02 15:20:00
9:41 AM,55.4,50.0,82,30.56,10.0,Calm,Calm,-,N/A,,Overcast,0,2013-08-02 15:41:00
10:01 AM,55.4,50.0,82,30.57,10.0,Calm,Calm,-,N/A,,Overcast,0,2013-08-02 16:01:00
10:21 AM,55.4,50.0,82,30.57,10.0,Calm,Calm,-,N/A,,Overcast,0,2013-08-02 16:21:00
10:41 AM,59.0,51.8,77,30.58,10.0,Calm,Calm,-,N/A,,Overcast,0,2013-08-02 16:41:00
11:01 AM,59.0,51.8,77,30.58,10.0,Calm,Calm,-,N/A,,Overcast,0,2013-08-02 17:01:00
11:21 AM,59.0,51.8,77,30.58,10.0,West,3.5,-,N/A,,Mostly Cloudy,260,2013-08-02 17:21:00
11:41 AM,59.0,50.0,72,30.58,10.0,West,3.5,-,N/A,,Mostly Cloudy,280,2013-08-02 17:41:00
12:01 PM,60.8,51.8,72,30.58,10.0,Calm,Calm,-,N/A,,Mostly Cloudy,0,2013-08-02 18:01:00
12:21 PM,60.8,51.8,72,30.58,10.0,Calm,Calm,-,N/A,,Mostly Cloudy,0,2013-08-02 18:21:00
12:41 PM,62.6,50.0,63,30.57,10.0,Calm,Calm,-,N/A,,Mostly Cloudy,0,2013-08-02 18:41:00
1:01 PM,62.6,51.8,68,30.58,10.0,WSW,3.5,-,N/A,,Mostly Cloudy,250,2013-08-02 19:01:00
1:21 PM,62.6,50.0,63,30.58,10.0,Calm,Calm,-,N/A,,Scattered Clouds,0,2013-08-02 19:21:00
1:41 PM,64.4,46.4,52,30.57,10.0,West,3.5,-,N/A,,Scattered Clouds,260,2013-08-02 19:41:00
2:00 PM,62.6,48.2,59,30.57,10.0,Calm,Calm,-,N/A,,Mostly Cloudy,0,2013-08-02 20:00:00
2:21 PM,64.4,50.0,59,30.57,10.0,Calm,Calm,-,N/A,,Scattered Clouds,0,2013-08-02 20:21:00
2:41 PM,62.6,50.0,63,30.56,10.0,Calm,Calm,-,N/A,,Mostly Cloudy,0,2013-08-02 20:41:00
3:01 PM,62.6,48.2,59,30.57,10.0,Calm,Calm,-,N/A,,Mostly Cloudy,0,2013-08-02 21:01:00
3:20 PM,62.6,50.0,63,30.57,10.0,WSW,3.5,-,N/A,,Mostly Cloudy,250,2013-08-02 21:20:00
3:41 PM,64.4,48.2,56,30.56,10.0,Calm,Calm,-,N/A,,Scattered Clouds,0,2013-08-02 21:41:00
4:00 PM,68.0,46.4,46,30.55,10.0,Calm,Calm,-,N/A,,Scattered Clouds,0,2013-08-02 22:00:00
4:20 PM,68.0,46.4,46,30.55,10.0,Calm,Calm,-,N/A,,Scattered Clouds,0,2013-08-02 22:20:00
4:41 PM,69.8,48.2,46,30.55,10.0,Calm,Calm,-,N/A,,Scattered Clouds,0,2013-08-02 22:41:00
5:01 PM,64.4,46.4,52,30.55,10.0,WSW,3.5,-,N/A,,Scattered Clouds,250,2013-08-02 23:01:00
5:21 PM,64.4,46.4,52,30.54,10.0,Calm,Calm,-,N/A,,Scattered Clouds,0,2013-08-02 23:21:00
5:41 PM,68.0,46.4,46,30.54,10.0,WSW,3.5,-,N/A,,Scattered Clouds,250,2013-08-02 23:41:00
6:00 PM,66.2,46.4,49,30.54,10.0,Calm,Calm,-,N/A,,Scattered Clouds,0,2013-08-03 00:00:00
6:20 PM,64.4,46.4,52,30.54,10.0,Calm,Calm,-,N/A,,Mostly Cloudy,0,2013-08-03 00:20:00
6:41 PM,64.4,44.6,49,30.55,10.0,Calm,Calm,-,N/A,,Mostly Cloudy,0,2013-08-03 00:41:00
7:01 PM,64.4,44.6,49,30.55,10.0,Calm,Calm,-,N/A,,Scattered Clouds,0,2013-08-03 01:01:00
7:20 PM,62.6,46.4,55,30.55,10.0,Calm,Calm,-,N/A,,Scattered Clouds,0,2013-08-03 01:20:00
7:36 PM,60.8,46.4,59,30.55,10.0,Calm,Calm,-,N/A,,Clear,0,2013-08-03 01:36:00
8:01 PM,59.0,46.4,63,30.55,10.0,Calm,Calm,-,N/A,,Clear,0,2013-08-03 02:01:00
8:21 PM,57.2,44.6,63,30.55,10.0,Calm,Calm,-,N/A,,Clear,0,2013-08-03 02:21:00
8:41 PM,55.4,44.6,67,30.55,10.0,Calm,Calm,-,N/A,,Clear,0,2013-08-03 02:41:00
9:01 PM,55.4,44.6,67,30.55,10.0,Calm,Calm,-,N/A,,Clear,0,2013-08-03 03:01:00
9:20 PM,57.2,42.8,59,30.56,10.0,Calm,Calm,-,N/A,,Clear,0,2013-08-03 03:20:00
9:41 PM,55.4,42.8,63,30.56,10.0,Calm,Calm,-,N/A,,Clear,0,2013-08-03 03:41:00
10:01 PM,55.4,42.8,63,30.56,10.0,Calm,Calm,-,N/A,,Clear,0,2013-08-03 04:01:00
10:21 PM,55.4,42.8,63,30.57,10.0,Calm,Calm,-,N/A,,Clear,0,2013-08-03 04:21:00
10:41 PM,55.4,42.8,63,30.57,10.0,Calm,Calm,-,N/A,,Clear,0,2013-08-03 04:41:00
11:00 PM,55.4,42.8,63,30.57,10.0,Calm,Calm,-,N/A,,Clear,0,2013-08-03 05:00:00
11:21 PM,55.4,44.6,67,30.57,10.0,Calm,Calm,-,N/A,,Clear,0,2013-08-03 05:21:00
11:41 PM,53.6,44.6,72,30.57,10.0,Calm,Calm,-,N/A,,Clear,0,2013-08-03 05:41:00